createdAt,value
2023-02-18T00:04:15.210Z,1.83
2023-02-18T00:09:19.071Z,2.10
2023-02-18T00:14:27.629Z,1.80
2023-02-18T00:19:30.183Z,2.10
2023-02-18T00:24:33.898Z,1.30
2023-02-18T00:29:36.395Z,1.55
2023-02-18T00:34:38.904Z,1.95
2023-02-18T00:39:42.924Z,1.50
2023-02-18T00:44:45.472Z,1.77
2023-02-18T00:49:48.208Z,1.63
2023-02-18T00:54:52.059Z,1.80
2023-02-18T00:59:54.616Z,1.70
2023-02-18T01:04:57.160Z,1.13
2023-02-18T01:10:01.370Z,1.60
2023-02-18T01:20:06.858Z,1.30
2023-02-18T01:25:11.542Z,0.90
2023-02-18T01:30:17.265Z,1.70
2023-02-18T01:35:20.546Z,1.10
2023-02-18T01:40:26.592Z,0.93
2023-02-18T01:45:41.745Z,1.52
2023-02-18T01:50:45.518Z,1.40
2023-02-18T01:55:49.640Z,1.52
2023-02-18T02:05:54.398Z,1.70
2023-02-18T02:11:04.270Z,1.70
2023-02-18T02:16:10.644Z,0.90
2023-02-18T02:21:28.226Z,2.08
2023-02-18T02:26:48.911Z,1.63
2023-02-18T02:32:06.310Z,1.55
2023-02-18T02:37:13.986Z,2.00
2023-02-18T02:42:20.297Z,1.48
2023-02-18T02:47:27.562Z,1.38
2023-02-18T02:52:32.850Z,1.20
2023-02-18T02:57:47.170Z,1.52
2023-02-18T03:03:00.860Z,1.63
2023-02-18T03:08:12.865Z,1.42
2023-02-18T03:13:19.331Z,1.52
2023-02-18T03:18:27.455Z,1.17
2023-02-18T03:23:34.168Z,1.15
2023-02-18T03:28:37.016Z,1.10
2023-02-18T03:33:41.386Z,0.98
2023-02-18T03:38:46.769Z,0.85
2023-02-18T03:43:52.095Z,1.60
2023-02-18T03:48:54.588Z,1.02
2023-02-18T03:53:58.643Z,0.90
2023-02-18T04:04:04.147Z,1.40
2023-02-18T04:09:09.099Z,1.58
2023-02-18T04:14:14.181Z,1.17
2023-02-18T04:19:16.662Z,1.17
2023-02-18T04:24:20.766Z,1.27
2023-02-18T04:34:26.019Z,1.23
2023-02-18T04:39:29.905Z,1.10
2023-02-18T04:44:32.409Z,1.50
2023-02-18T04:49:35.214Z,1.10
2023-02-18T04:54:39.260Z,1.13
2023-02-18T05:04:44.270Z,1.25
2023-02-18T05:09:48.377Z,1.15
2023-02-18T05:19:53.327Z,1.30
2023-02-18T05:24:57.130Z,0.88
2023-02-18T05:29:59.702Z,1.08
2023-02-18T05:35:02.272Z,0.80
2023-02-18T05:40:07.234Z,1.00
2023-02-18T05:45:10.713Z,0.93
2023-02-18T05:50:13.215Z,0.47
2023-02-18T05:55:17.243Z,0.60
2023-02-18T06:05:22.130Z,0.52
2023-02-18T06:10:25.950Z,0.50
2023-02-18T06:15:28.455Z,0.43
2023-02-18T06:20:30.920Z,0.60
2023-02-18T06:25:34.945Z,0.40
2023-02-18T06:35:40.243Z,0.60
2023-02-18T06:40:44.074Z,0.90
2023-02-18T06:45:46.590Z,0.40
2023-02-18T06:50:49.370Z,0.65
2023-02-18T06:55:53.615Z,0.60
2023-02-18T07:00:56.188Z,0.50
2023-02-18T07:05:58.728Z,0.50
2023-02-18T07:11:03.042Z,0.60
2023-02-18T07:16:05.893Z,0.50
2023-02-18T07:21:08.551Z,0.47
2023-02-18T07:26:13.337Z,0.45
2023-02-18T07:31:16.051Z,0.60
2023-02-18T07:36:18.643Z,0.50
2023-02-18T07:41:23.343Z,0.40
2023-02-18T07:46:26.064Z,0.50
2023-02-18T07:51:28.660Z,0.30
2023-02-18T07:56:32.545Z,0.50
2023-02-18T08:06:38.827Z,0.55
2023-02-18T08:16:45.148Z,0.60
2023-02-18T08:21:47.655Z,0.85
2023-02-18T08:27:00.290Z,0.50
2023-02-18T08:32:04.892Z,1.00
2023-02-18T08:37:07.457Z,0.70
2023-02-18T08:42:10.135Z,0.60
2023-02-18T08:48:16.914Z,0.80
2023-02-18T08:52:37.178Z,0.57
2023-02-18T08:57:39.723Z,0.65
2023-02-18T09:02:43.724Z,0.77
2023-02-18T09:07:46.314Z,0.50
2023-02-18T09:12:48.853Z,0.60
2023-02-18T09:17:52.875Z,0.70
2023-02-18T09:22:55.413Z,1.00
2023-02-18T09:27:58.123Z,1.13
2023-02-18T09:33:01.952Z,0.63
2023-02-18T09:38:04.455Z,0.90
2023-02-18T09:43:07.766Z,0.82
2023-02-18T09:48:12.396Z,0.70
2023-02-18T09:53:22.526Z,1.67
2023-02-18T09:58:27.508Z,0.90
2023-02-18T10:03:31.701Z,1.23
2023-02-18T10:08:36.033Z,0.90
2023-02-18T10:13:40.029Z,1.40
2023-02-18T10:18:45.230Z,1.10
2023-02-18T10:23:54.688Z,0.80
2023-02-18T10:28:57.930Z,1.13
2023-02-18T10:34:07.442Z,1.00
2023-02-18T10:39:17.292Z,0.90
2023-02-18T10:44:26.648Z,1.10
2023-02-18T10:49:36.698Z,0.85
2023-02-18T10:54:53.503Z,0.93
2023-02-18T10:59:57.497Z,1.20
2023-02-18T11:05:06.596Z,1.35
2023-02-18T11:10:16.004Z,1.10
2023-02-18T11:15:19.915Z,1.20
2023-02-18T11:20:26.198Z,1.10
2023-02-18T11:25:33.089Z,1.20
2023-02-18T11:30:37.206Z,1.50
2023-02-18T11:35:41.273Z,1.00
2023-02-18T11:40:43.858Z,1.10
2023-02-18T11:45:46.503Z,0.70
2023-02-18T11:50:53.292Z,0.80
2023-02-18T11:55:56.868Z,0.52
2023-02-18T12:01:01.873Z,0.60
2023-02-18T12:06:07.524Z,0.88
2023-02-18T12:11:13.800Z,0.93
2023-02-18T12:16:22.829Z,0.65
2023-02-18T12:21:37.495Z,0.90
2023-02-18T12:26:47.284Z,0.90
2023-02-18T12:32:01.234Z,0.75
2023-02-18T12:37:10.362Z,0.80
2023-02-18T12:42:25.135Z,0.52
2023-02-18T12:47:31.918Z,0.60
2023-02-18T12:52:42.121Z,0.60
2023-02-18T12:57:47.916Z,0.80
2023-02-18T13:03:05.084Z,0.70
2023-02-18T13:08:18.499Z,0.90
2023-02-18T13:18:25.876Z,0.93
2023-02-18T13:23:32.568Z,1.25
2023-02-18T13:28:39.447Z,1.05
2023-02-18T13:33:45.511Z,0.90
2023-02-18T13:38:55.542Z,0.90
2023-02-18T13:43:58.648Z,0.68
2023-02-18T13:49:06.963Z,0.63
2023-02-18T13:54:17.906Z,0.80
2023-02-18T13:59:21.866Z,0.75
2023-02-18T14:04:35.772Z,0.60
2023-02-18T14:09:41.946Z,0.70
2023-02-18T14:14:45.213Z,0.70
2023-02-18T14:19:54.664Z,0.85
2023-02-18T14:25:17.556Z,0.80
2023-02-18T14:30:21.134Z,0.80
2023-02-18T14:40:35.249Z,0.73
2023-02-18T14:45:48.387Z,1.00
2023-02-18T14:50:52.925Z,0.80
2023-02-18T14:56:00.205Z,0.90
2023-02-18T15:01:07.333Z,0.93
2023-02-18T15:06:23.317Z,0.90
2023-02-18T15:11:30.776Z,0.70
2023-02-18T15:16:34.425Z,0.60
2023-02-18T15:21:40.468Z,0.70
2023-02-18T15:26:46.700Z,0.60
2023-02-18T15:31:49.742Z,0.73
2023-02-18T15:36:54.050Z,0.40
2023-02-18T15:41:59.648Z,0.70
2023-02-18T15:47:03.090Z,0.55
2023-02-18T15:52:06.188Z,0.43
2023-02-18T15:57:14.097Z,0.70
2023-02-18T16:02:19.223Z,0.40
2023-02-18T16:07:23.859Z,0.57
2023-02-18T16:12:29.849Z,0.52
2023-02-18T16:17:32.907Z,0.70
2023-02-18T16:22:37.285Z,0.73
2023-02-18T16:27:49.345Z,0.60
2023-02-18T16:32:52.264Z,0.60
2023-02-18T16:37:57.687Z,0.80
2023-02-18T16:43:02.698Z,0.70
2023-02-18T16:48:05.988Z,0.70
2023-02-18T16:53:08.478Z,0.70
2023-02-18T16:58:12.463Z,1.00
2023-02-18T17:08:19.384Z,0.82
2023-02-18T17:13:24.575Z,0.80
2023-02-18T17:18:27.691Z,0.80
2023-02-18T17:23:30.482Z,0.80
2023-02-18T17:28:34.687Z,0.57
2023-02-18T17:38:39.661Z,0.60
2023-02-18T17:43:43.822Z,0.80
2023-02-18T17:48:46.847Z,0.63
2023-02-18T17:53:49.407Z,0.70
2023-02-18T17:58:53.225Z,0.88
2023-02-18T18:03:55.727Z,0.50
2023-02-18T18:08:58.414Z,0.52
2023-02-18T18:14:02.458Z,0.90
2023-02-18T18:24:07.723Z,1.08
2023-02-18T18:29:12.873Z,0.70
2023-02-18T18:34:16.898Z,0.90
2023-02-18T18:44:23.259Z,1.02
2023-02-18T18:49:25.894Z,0.80
2023-02-18T18:54:28.417Z,0.60
2023-02-18T18:59:32.341Z,1.30
2023-02-18T19:09:37.432Z,0.93
2023-02-18T19:14:41.231Z,1.10
2023-02-18T19:19:44.458Z,0.75
2023-02-18T19:24:46.946Z,1.07
2023-02-18T19:29:54.283Z,1.05
2023-02-18T19:34:56.723Z,0.90
2023-02-18T19:39:59.190Z,1.10
2023-02-18T19:45:03.060Z,1.10
2023-02-18T19:50:05.946Z,1.15
2023-02-18T19:55:08.794Z,1.15
2023-02-18T20:00:14.076Z,0.90
2023-02-18T20:05:17.438Z,0.73
2023-02-18T20:10:21.052Z,1.15
2023-02-18T20:15:25.253Z,1.15
2023-02-18T20:20:28.245Z,1.02
2023-02-18T20:25:31.381Z,1.05
2023-02-18T20:30:35.329Z,1.27
2023-02-18T20:35:37.987Z,0.90
2023-02-18T20:40:40.965Z,1.10
2023-02-18T20:45:44.875Z,1.02
2023-02-18T20:50:47.416Z,0.93
2023-02-18T20:55:50.153Z,0.77
2023-02-18T21:00:58.383Z,1.10
2023-02-18T21:06:01.825Z,0.98
2023-02-18T21:11:05.454Z,0.70
2023-02-18T21:16:10.129Z,1.10
2023-02-18T21:21:14.018Z,1.27
2023-02-18T21:26:17.518Z,0.73
2023-02-18T21:31:22.379Z,0.47
2023-02-18T21:36:25.227Z,1.10
2023-02-18T21:41:28.078Z,0.80
2023-02-18T21:46:32.688Z,0.80
2023-02-18T21:51:55.164Z,0.95
2023-02-18T21:56:58.290Z,0.60
2023-02-18T22:02:02.319Z,0.60
2023-02-18T22:12:07.396Z,0.82
2023-02-18T22:17:11.655Z,1.15
2023-02-18T22:22:14.613Z,0.88
2023-02-18T22:27:19.497Z,1.13
2023-02-18T22:32:23.565Z,1.00
2023-02-18T22:37:26.350Z,1.00
2023-02-18T22:42:29.125Z,1.00
2023-02-18T22:47:32.941Z,1.20
2023-02-18T22:52:35.567Z,1.10
2023-02-18T22:57:38.145Z,0.90
2023-02-18T23:02:41.966Z,1.30
2023-02-18T23:07:44.565Z,1.00
2023-02-18T23:12:47.144Z,1.10
2023-02-18T23:17:51.453Z,1.05
2023-02-18T23:22:54.315Z,1.30
2023-02-18T23:27:57.048Z,1.08
2023-02-18T23:33:01.051Z,1.17
2023-02-18T23:43:08.576Z,0.70
2023-02-18T23:48:12.487Z,1.15
2023-02-18T23:53:15.228Z,0.93
2023-02-18T23:58:17.829Z,1.25
